Hauptseite
METAR-TAF:

METAR-TAF

Flughäfen :

Flughafen Conakry

Conakry, Guinea

Breite: 09-34N, Länge: 013-37W, Höhe: 26 m

Beobachtung

Neuester Wetterbericht von vor 3 Stunden und 25 Minuten, um 01:00 UTC
Wind 10 kt aus Nord
Temperatur 26°C
Luftfeuchtigkeit 79%
Luftdruck 1015 hPa
Sichtweite: 5000 m
trockener Dunst

METAR: GUCY 210100Z 35010KT 5000 HZ NSC 26/22 Q1015

Zeit: 04:25 (04:25 UTC)

Prognose

Neuester Wetterbericht von vor 5 Stunden und 25 Minuten, um 23:00 UTC
Gültige Prognose vom 21 um 00 UTC bis 22 um 06 UTC
Wind 6 kt aus Nordwest
Sichtweite: 5000 m
Aufgelockert bewölkt in der Höhe von 11000 ft
trockener Dunst
Zeitweise
vom 21 um 03 UTC bis 21 um 08 UTC
Wind 2 kt aus unterschiedlichen Richtungen
Sichtweite: 3000 m
Durchbrochene Bewölkung in der Höhe von 11000 ft
feuchter Dunst

TAF: GUCY 202300Z 2100/2206 32006KT 5000 HZ SCT110 TEMPO 2103/2108 VRB02KT 3000 BR BKN110

Wetterbeobachtungen und Prognosen von mehr als 4000 Flughäfen (METAR und TAF Bericht).

Die verfügbaren Stationen werden durch gelbe und rote Markierungen auf der Karte dargestellt.

Führen Sie die Maus auf sie, um den Namen der Station zu sehen.

Darauf klicken, um die Beobachtung von Wetterbeobachtungen und Prognosen zu sehen.

Um die Karte zu ändern : klicken Sie auf den grünen Tasten mit einem schwarzen Kreuz Zum Vergrößern, auf den grünen Button mit einem Gedankenstrich zu verkleinern, oder auf die grünen Pfeile für benachbarte Karten.


METAR-TAF: